createdAt,value
2022-08-28T00:00:25.692Z,7.78
2022-08-28T00:02:53.722Z,9.50
2022-08-28T00:05:23.341Z,8.55
2022-08-28T00:07:50.658Z,9.52
2022-08-28T00:10:22.603Z,9.90
2022-08-28T00:12:51.404Z,11.95
2022-08-28T00:15:27.434Z,11.18
2022-08-28T00:17:54.409Z,11.27
2022-08-28T00:20:22.006Z,11.00
2022-08-28T00:22:49.844Z,10.05
2022-08-28T00:25:20.550Z,10.75
2022-08-28T00:27:53.081Z,11.75
2022-08-28T00:30:50.840Z,11.30
2022-08-28T00:33:27.977Z,11.23
2022-08-28T00:35:55.105Z,9.98
2022-08-28T00:38:23.127Z,9.52
2022-08-28T00:40:55.619Z,10.82
2022-08-28T00:43:31.950Z,10.98
2022-08-28T00:45:58.669Z,11.07
2022-08-28T00:48:25.456Z,8.25
2022-08-28T00:51:10.683Z,11.98
2022-08-28T00:53:37.630Z,10.15
2022-08-28T00:56:10.288Z,9.45
2022-08-28T00:58:42.592Z,8.95
2022-08-28T01:01:09.685Z,11.40
2022-08-28T01:03:37.556Z,12.05
2022-08-28T01:06:05.094Z,9.55
2022-08-28T01:08:34.079Z,9.32
2022-08-28T01:11:04.394Z,10.18
2022-08-28T01:13:32.464Z,14.25
2022-08-28T01:16:01.107Z,12.73
2022-08-28T01:18:28.757Z,12.48
2022-08-28T01:21:04.408Z,9.85
2022-08-28T01:23:51.724Z,11.15
2022-08-28T01:26:19.137Z,11.38
2022-08-28T01:28:46.105Z,10.45
2022-08-28T01:31:15.184Z,11.32
2022-08-28T01:33:43.028Z,15.40
2022-08-28T01:36:12.129Z,13.35
2022-08-28T01:38:41.095Z,11.05
2022-08-28T01:41:08.372Z,13.30
2022-08-28T01:43:35.263Z,10.95
2022-08-28T01:46:05.034Z,12.88
2022-08-28T01:48:36.226Z,13.27
2022-08-28T01:51:04.924Z,11.75
2022-08-28T01:53:33.138Z,14.10
2022-08-28T01:56:04.652Z,11.48
2022-08-28T01:58:36.067Z,11.68
2022-08-28T02:01:09.851Z,11.18
2022-08-28T02:03:36.617Z,17.60
2022-08-28T02:06:03.409Z,16.10
2022-08-28T02:08:30.156Z,14.75
2022-08-28T02:10:57.371Z,12.48
2022-08-28T02:13:25.740Z,18.27
2022-08-28T02:15:52.575Z,19.40
2022-08-28T02:18:19.468Z,15.52
2022-08-28T02:20:46.581Z,18.45
2022-08-28T02:23:13.785Z,14.18
2022-08-28T02:25:40.627Z,16.58
2022-08-28T02:28:07.548Z,16.80
2022-08-28T02:30:35.690Z,13.85
2022-08-28T02:33:02.557Z,15.73
2022-08-28T02:35:31.256Z,15.75
2022-08-28T02:38:00.401Z,14.48
2022-08-28T02:40:27.830Z,13.15
2022-08-28T02:42:54.633Z,15.18
2022-08-28T02:45:21.413Z,13.48
2022-08-28T02:47:51.367Z,12.02
2022-08-28T02:50:19.870Z,13.27
2022-08-28T02:52:46.854Z,12.23
2022-08-28T02:55:16.337Z,15.55
2022-08-28T02:57:43.492Z,15.68
2022-08-28T03:00:13.748Z,13.98
2022-08-28T03:02:42.087Z,16.70
2022-08-28T03:05:10.293Z,18.45
2022-08-28T03:07:37.084Z,17.02
2022-08-28T03:10:07.164Z,17.33
2022-08-28T03:12:34.833Z,16.08
2022-08-28T03:15:02.052Z,17.02
2022-08-28T03:17:28.838Z,15.85
2022-08-28T03:19:55.625Z,18.85
2022-08-28T03:22:42.422Z,17.90
2022-08-28T03:25:09.383Z,18.63
2022-08-28T03:27:36.144Z,17.25
2022-08-28T03:30:07.054Z,18.45
2022-08-28T03:32:34.176Z,16.92
2022-08-28T03:35:00.935Z,16.88
2022-08-28T03:37:27.830Z,17.85
2022-08-28T03:39:55.196Z,16.50
2022-08-28T03:42:22.097Z,18.77
2022-08-28T03:44:49.136Z,19.42
2022-08-28T03:47:16.939Z,19.27
2022-08-28T03:49:45.365Z,19.75
2022-08-28T03:52:12.620Z,19.52
2022-08-28T03:54:39.471Z,19.33
2022-08-28T03:57:07.615Z,20.08
2022-08-28T03:59:35.599Z,19.05
2022-08-28T04:02:02.395Z,21.27
2022-08-28T04:04:29.101Z,22.38
2022-08-28T04:06:55.827Z,21.48
2022-08-28T04:09:22.568Z,19.00
2022-08-28T04:11:49.225Z,23.80
2022-08-28T04:14:15.952Z,24.45
2022-08-28T04:16:43.008Z,23.23
2022-08-28T04:19:09.967Z,27.20
2022-08-28T04:21:36.846Z,24.48
2022-08-28T04:24:09.012Z,22.80
2022-08-28T04:26:36.948Z,27.95
2022-08-28T04:29:04.670Z,25.05
2022-08-28T04:31:32.847Z,24.80
2022-08-28T04:34:01.710Z,23.75
2022-08-28T04:36:29.046Z,21.42
2022-08-28T04:38:57.592Z,26.05
2022-08-28T04:41:24.309Z,23.10
2022-08-28T04:43:52.708Z,27.17
2022-08-28T04:46:19.581Z,24.70
2022-08-28T04:48:46.341Z,24.83
2022-08-28T04:51:15.070Z,24.60
2022-08-28T04:53:43.022Z,26.45
2022-08-28T04:56:12.685Z,22.77
2022-08-28T04:58:40.690Z,27.42
2022-08-28T05:01:18.780Z,24.30
2022-08-28T05:03:47.903Z,27.42
2022-08-28T05:06:16.316Z,23.45
2022-08-28T05:08:45.473Z,22.52
2022-08-28T05:11:33.448Z,28.50
2022-08-28T05:14:06.998Z,24.60
2022-08-28T05:16:40.885Z,21.10
2022-08-28T05:19:07.673Z,24.48
2022-08-28T05:21:34.421Z,26.48
2022-08-28T05:24:01.277Z,28.80
2022-08-28T05:26:29.684Z,26.50
2022-08-28T05:28:58.261Z,25.50
2022-08-28T05:31:25.866Z,22.88
2022-08-28T05:33:53.494Z,20.85
2022-08-28T05:36:22.743Z,24.48
2022-08-28T05:38:51.395Z,23.10
2022-08-28T05:41:23.951Z,22.75
2022-08-28T05:43:51.425Z,21.27
2022-08-28T05:46:18.386Z,23.17
2022-08-28T05:48:45.762Z,26.80
2022-08-28T05:51:14.591Z,22.95
2022-08-28T05:53:43.736Z,22.83
2022-08-28T05:56:13.484Z,21.60
2022-08-28T05:58:40.726Z,23.27
2022-08-28T06:01:19.801Z,25.08
2022-08-28T06:03:55.038Z,23.02
2022-08-28T06:06:24.769Z,21.67
2022-08-28T06:08:56.320Z,23.70
2022-08-28T06:11:30.505Z,20.40
2022-08-28T06:14:02.540Z,27.00
2022-08-28T06:16:31.382Z,25.50
2022-08-28T06:18:58.629Z,23.17
2022-08-28T06:21:25.372Z,25.83
2022-08-28T06:23:52.078Z,21.63
2022-08-28T06:26:19.014Z,26.17
2022-08-28T06:28:45.976Z,24.10
2022-08-28T06:31:23.277Z,29.58
2022-08-28T06:33:54.188Z,22.40
2022-08-28T06:36:21.467Z,23.27
2022-08-28T06:38:48.389Z,21.25
2022-08-28T06:41:15.770Z,25.23
2022-08-28T06:43:42.672Z,25.23
2022-08-28T06:46:09.667Z,22.15
2022-08-28T06:48:36.652Z,27.77
2022-08-28T06:51:07.292Z,21.90
2022-08-28T06:53:34.065Z,26.20
2022-08-28T06:56:16.207Z,22.83
2022-08-28T06:58:54.549Z,23.00
2022-08-28T07:01:25.569Z,23.83
2022-08-28T07:03:54.845Z,21.50
2022-08-28T07:06:23.396Z,23.52
2022-08-28T07:08:51.131Z,28.92
2022-08-28T07:11:26.366Z,23.33
2022-08-28T07:13:54.375Z,21.75
2022-08-28T07:16:24.231Z,25.55
2022-08-28T07:18:50.999Z,22.80
2022-08-28T07:21:17.860Z,21.63
2022-08-28T07:23:46.052Z,19.70
2022-08-28T07:26:16.261Z,19.17
2022-08-28T07:28:43.471Z,25.58
2022-08-28T07:31:26.133Z,22.58
2022-08-28T07:33:54.855Z,24.92
2022-08-28T07:36:29.599Z,19.83
2022-08-28T07:38:58.377Z,23.15
2022-08-28T07:41:28.787Z,17.80
2022-08-28T07:44:14.697Z,15.85
2022-08-28T07:46:41.681Z,19.52
2022-08-28T07:49:09.317Z,22.30
2022-08-28T07:51:36.489Z,22.00
2022-08-28T07:54:04.425Z,21.05
2022-08-28T07:56:31.554Z,19.65
2022-08-28T07:59:00.323Z,19.27
2022-08-28T08:01:30.650Z,23.77
2022-08-28T08:04:01.969Z,20.65
2022-08-28T08:06:33.881Z,17.02
2022-08-28T08:09:02.322Z,19.02
2022-08-28T08:11:32.570Z,18.13
2022-08-28T08:14:04.851Z,18.85
2022-08-28T08:16:38.644Z,15.57
2022-08-28T08:19:10.015Z,16.40
2022-08-28T08:21:37.673Z,14.35
2022-08-28T08:24:05.276Z,14.93
2022-08-28T08:26:33.102Z,19.52
2022-08-28T08:29:00.641Z,15.23
2022-08-28T08:31:32.660Z,15.18
2022-08-28T08:34:02.012Z,13.77
2022-08-28T08:36:31.017Z,13.38
2022-08-28T08:39:00.329Z,16.25
2022-08-28T08:41:43.582Z,15.00
2022-08-28T08:44:33.206Z,13.90
2022-08-28T08:47:14.762Z,13.68
2022-08-28T08:50:10.516Z,15.68
2022-08-28T08:52:55.887Z,13.25
2022-08-28T08:55:31.510Z,17.23
2022-08-28T08:58:11.290Z,17.33
2022-08-28T09:00:56.391Z,15.80
2022-08-28T09:03:27.716Z,13.77
2022-08-28T09:06:00.341Z,13.65
2022-08-28T09:08:50.483Z,14.88
2022-08-28T09:11:43.655Z,14.73
2022-08-28T09:14:48.062Z,14.52
2022-08-28T09:17:18.251Z,15.25
2022-08-28T09:19:45.321Z,15.98
2022-08-28T09:22:12.272Z,15.00
2022-08-28T09:24:41.345Z,15.32
2022-08-28T09:27:21.393Z,16.17
2022-08-28T09:30:14.956Z,21.65
2022-08-28T09:32:44.703Z,24.33
2022-08-28T09:35:30.684Z,20.60
2022-08-28T09:38:20.553Z,30.52
2022-08-28T09:41:08.341Z,23.90
2022-08-28T09:43:37.308Z,18.85
2022-08-28T09:46:19.710Z,19.55
2022-08-28T09:48:50.450Z,19.88
2022-08-28T09:51:23.415Z,19.80
2022-08-28T09:53:53.644Z,21.52
2022-08-28T09:56:25.692Z,18.60
2022-08-28T09:58:56.286Z,18.10
2022-08-28T10:01:44.549Z,19.17
2022-08-28T10:04:18.072Z,17.58
2022-08-28T10:06:54.939Z,18.63
2022-08-28T10:09:40.306Z,21.75
2022-08-28T10:12:42.594Z,17.05
2022-08-28T10:15:28.357Z,15.82
2022-08-28T10:18:13.970Z,20.75
2022-08-28T10:20:52.845Z,15.55
2022-08-28T10:23:39.250Z,18.33
2022-08-28T10:26:23.914Z,13.95
2022-08-28T10:29:11.821Z,16.73
2022-08-28T10:31:58.930Z,14.68
2022-08-28T10:34:46.716Z,12.27
2022-08-28T10:37:33.127Z,12.18
2022-08-28T10:40:09.099Z,15.15
2022-08-28T10:42:43.877Z,13.15
2022-08-28T10:45:22.770Z,12.85
2022-08-28T10:47:55.489Z,13.25
2022-08-28T10:50:40.569Z,14.27
2022-08-28T10:53:13.896Z,12.95
2022-08-28T10:56:04.241Z,11.57
2022-08-28T10:58:32.617Z,10.88
2022-08-28T11:01:03.174Z,14.80
2022-08-28T11:03:34.854Z,11.70
2022-08-28T11:06:31.396Z,11.60
2022-08-28T11:09:20.739Z,10.57
2022-08-28T11:11:48.902Z,9.35
2022-08-28T11:14:48.487Z,8.95
2022-08-28T11:17:25.309Z,7.88
2022-08-28T11:20:10.752Z,10.85
2022-08-28T11:22:40.468Z,7.60
2022-08-28T11:25:32.738Z,7.88
2022-08-28T11:28:20.068Z,7.88
2022-08-28T11:30:50.187Z,10.40
2022-08-28T11:33:47.810Z,10.25
2022-08-28T11:36:20.602Z,5.72
2022-08-28T11:38:57.046Z,4.43
2022-08-28T11:41:28.096Z,5.85
2022-08-28T11:44:11.085Z,9.48
2022-08-28T11:46:42.250Z,4.97
2022-08-28T11:49:26.872Z,3.30
2022-08-28T11:51:56.313Z,6.97
2022-08-28T11:54:55.518Z,5.55
2022-08-28T11:57:55.202Z,4.45
2022-08-28T12:00:50.430Z,3.92
2022-08-28T12:03:31.653Z,6.65
2022-08-28T12:06:00.419Z,6.93
2022-08-28T12:08:46.740Z,9.23
2022-08-28T12:11:39.581Z,4.97
2022-08-28T12:14:13.162Z,4.53
2022-08-28T12:16:58.678Z,6.07
2022-08-28T12:19:36.597Z,5.30
2022-08-28T12:22:20.521Z,5.38
2022-08-28T12:25:06.217Z,5.43
2022-08-28T12:27:38.630Z,3.97
2022-08-28T12:30:05.868Z,5.10
2022-08-28T12:32:40.943Z,5.70
2022-08-28T12:35:26.131Z,5.68
2022-08-28T12:37:55.965Z,4.82
2022-08-28T12:40:47.419Z,4.25
2022-08-28T12:43:21.704Z,5.43
2022-08-28T12:45:53.716Z,5.72
2022-08-28T12:48:33.138Z,6.70
2022-08-28T12:51:20.126Z,5.03
2022-08-28T12:53:50.712Z,4.72
2022-08-28T12:56:20.420Z,7.90
2022-08-28T12:58:47.714Z,5.38
2022-08-28T13:01:30.766Z,5.50
2022-08-28T13:04:18.452Z,5.60
2022-08-28T13:06:45.465Z,7.47
2022-08-28T13:09:22.322Z,5.10
2022-08-28T13:11:51.921Z,5.90
2022-08-28T13:14:44.656Z,6.57
2022-08-28T13:17:14.546Z,7.50
2022-08-28T13:19:41.696Z,5.88
2022-08-28T13:22:39.649Z,5.28
2022-08-28T13:25:08.074Z,5.22
2022-08-28T13:27:35.487Z,5.15
2022-08-28T13:30:28.261Z,9.18
2022-08-28T13:33:19.787Z,6.65
2022-08-28T13:35:46.741Z,7.43
2022-08-28T13:38:16.685Z,6.05
2022-08-28T13:40:57.963Z,5.95
2022-08-28T13:43:27.922Z,5.72
2022-08-28T13:45:54.710Z,4.75
2022-08-28T13:48:24.597Z,6.00
2022-08-28T13:50:58.605Z,6.50
2022-08-28T13:53:25.789Z,4.90
2022-08-28T13:55:53.024Z,5.22
2022-08-28T13:58:19.759Z,6.68
2022-08-28T14:00:49.708Z,6.60
2022-08-28T14:03:35.456Z,7.05
2022-08-28T14:06:11.689Z,6.05
2022-08-28T14:08:40.074Z,6.10
2022-08-28T14:11:07.493Z,6.95
2022-08-28T14:13:34.508Z,6.30
2022-08-28T14:16:05.534Z,4.60
2022-08-28T14:18:32.892Z,6.22
2022-08-28T14:20:59.602Z,5.72
2022-08-28T14:23:26.438Z,4.68
2022-08-28T14:25:53.152Z,6.82
2022-08-28T14:28:19.825Z,5.35
2022-08-28T14:30:48.995Z,4.55
2022-08-28T14:33:18.647Z,5.20
2022-08-28T14:35:46.773Z,5.00
2022-08-28T14:38:13.632Z,10.65
2022-08-28T14:40:42.871Z,5.45
2022-08-28T14:43:10.987Z,6.57
2022-08-28T14:45:49.527Z,5.53
2022-08-28T14:48:18.514Z,7.18
2022-08-28T14:50:47.798Z,5.78
2022-08-28T14:53:15.661Z,6.32
2022-08-28T14:55:48.499Z,3.65
2022-08-28T14:58:17.221Z,5.88
2022-08-28T15:00:49.686Z,4.28
2022-08-28T15:03:18.548Z,4.35
2022-08-28T15:05:46.173Z,6.25
2022-08-28T15:08:15.883Z,4.55
2022-08-28T15:10:43.581Z,4.50
2022-08-28T15:13:11.542Z,7.25
2022-08-28T15:15:39.624Z,4.50
2022-08-28T15:18:07.601Z,4.97
2022-08-28T15:20:46.335Z,5.30
2022-08-28T15:23:15.158Z,5.55
2022-08-28T15:25:42.171Z,5.00
2022-08-28T15:28:09.282Z,3.70
2022-08-28T15:30:37.456Z,4.47
2022-08-28T15:33:04.859Z,6.28
2022-08-28T15:35:34.185Z,6.40
2022-08-28T15:38:01.027Z,5.88
2022-08-28T15:40:46.212Z,5.72
2022-08-28T15:43:13.263Z,6.75
2022-08-28T15:45:41.096Z,4.78
2022-08-28T15:48:09.416Z,6.32
2022-08-28T15:50:36.227Z,7.10
2022-08-28T15:53:03.722Z,4.22
2022-08-28T15:55:34.157Z,5.57
2022-08-28T15:58:03.875Z,5.90
2022-08-28T16:00:32.124Z,6.13
2022-08-28T16:03:01.032Z,4.97
2022-08-28T16:05:39.641Z,6.07
2022-08-28T16:08:08.161Z,5.70
2022-08-28T16:10:35.221Z,5.50
2022-08-28T16:13:03.280Z,4.80
2022-08-28T16:15:30.082Z,8.73
2022-08-28T16:17:56.757Z,4.30
2022-08-28T16:20:25.103Z,9.52
2022-08-28T16:22:52.913Z,7.03
2022-08-28T16:25:19.696Z,6.38
2022-08-28T16:27:46.385Z,9.82
2022-08-28T16:30:15.725Z,5.10
2022-08-28T16:32:46.854Z,9.27
2022-08-28T16:35:15.725Z,4.80
2022-08-28T16:37:43.272Z,6.95
2022-08-28T16:40:10.946Z,6.00
2022-08-28T16:42:37.935Z,6.03
2022-08-28T16:45:06.161Z,11.40
2022-08-28T16:47:34.483Z,5.88
2022-08-28T16:50:05.864Z,6.85
2022-08-28T16:52:32.708Z,6.32
2022-08-28T16:54:59.978Z,7.53
2022-08-28T16:57:27.459Z,6.38
2022-08-28T16:59:54.537Z,7.30
2022-08-28T17:02:26.339Z,5.22
2022-08-28T17:04:55.195Z,5.85
2022-08-28T17:07:22.348Z,6.93
2022-08-28T17:09:49.154Z,7.30
2022-08-28T17:12:16.670Z,6.80
2022-08-28T17:14:43.886Z,7.18
2022-08-28T17:17:10.713Z,5.57
2022-08-28T17:19:38.356Z,5.38
2022-08-28T17:22:27.163Z,7.53
2022-08-28T17:24:54.706Z,6.05
2022-08-28T17:27:22.843Z,5.82
2022-08-28T17:29:50.626Z,8.02
2022-08-28T17:32:17.709Z,6.47
2022-08-28T17:34:44.767Z,8.13
2022-08-28T17:37:11.642Z,6.03
2022-08-28T17:39:38.421Z,6.75
2022-08-28T17:42:05.224Z,5.90
2022-08-28T17:44:31.945Z,6.65
2022-08-28T17:46:58.681Z,5.45
2022-08-28T17:49:26.880Z,6.85
2022-08-28T17:51:53.590Z,6.72
2022-08-28T17:54:24.360Z,6.95
2022-08-28T17:56:52.993Z,5.95
2022-08-28T17:59:20.817Z,7.50
2022-08-28T18:01:48.285Z,6.60
2022-08-28T18:04:23.197Z,7.03
2022-08-28T18:06:52.835Z,8.43
2022-08-28T18:09:19.629Z,7.85
2022-08-28T18:11:46.463Z,5.55
2022-08-28T18:14:13.501Z,6.85
2022-08-28T18:16:40.378Z,6.05
2022-08-28T18:19:09.580Z,9.38
2022-08-28T18:21:37.537Z,8.13
2022-08-28T18:24:04.566Z,8.13
2022-08-28T18:26:31.420Z,7.07
2022-08-28T18:28:58.475Z,7.80
2022-08-28T18:31:25.213Z,8.13
2022-08-28T18:33:52.150Z,7.60
2022-08-28T18:36:18.911Z,6.70
2022-08-28T18:38:47.076Z,9.77
2022-08-28T18:41:13.803Z,9.80
2022-08-28T18:43:41.978Z,7.00
2022-08-28T18:46:09.812Z,7.50
2022-08-28T18:48:37.793Z,6.45
2022-08-28T18:51:09.749Z,7.53
2022-08-28T18:53:37.507Z,7.60
2022-08-28T18:56:06.373Z,6.80
2022-08-28T18:58:33.873Z,9.75
2022-08-28T19:01:02.269Z,7.47
2022-08-28T19:03:29.692Z,7.95
2022-08-28T19:05:57.230Z,7.53
2022-08-28T19:08:25.232Z,7.28
2022-08-28T19:10:52.535Z,9.30
2022-08-28T19:13:19.705Z,7.40
2022-08-28T19:15:51.614Z,9.85
2022-08-28T19:18:19.274Z,6.75
2022-08-28T19:20:46.136Z,7.88
2022-08-28T19:23:17.273Z,8.57
2022-08-28T19:25:44.992Z,7.93
2022-08-28T19:28:11.661Z,6.70
2022-08-28T19:30:38.561Z,6.90
2022-08-28T19:33:05.867Z,8.20
2022-08-28T19:35:33.769Z,9.10
2022-08-28T19:38:01.089Z,7.72
2022-08-28T19:40:27.939Z,8.57
2022-08-28T19:42:54.747Z,9.80
2022-08-28T19:45:21.566Z,7.65
2022-08-28T19:47:48.449Z,7.60
2022-08-28T19:50:15.630Z,8.30
2022-08-28T19:52:43.468Z,7.18
2022-08-28T19:55:16.454Z,6.93
2022-08-28T19:57:43.176Z,8.80
2022-08-28T20:00:10.815Z,9.60
2022-08-28T20:02:37.567Z,8.88
2022-08-28T20:05:05.516Z,7.28
2022-08-28T20:07:32.337Z,7.25
2022-08-28T20:09:59.042Z,10.40
2022-08-28T20:12:26.287Z,7.53
2022-08-28T20:14:52.969Z,8.13
2022-08-28T20:17:19.749Z,7.88
2022-08-28T20:19:47.689Z,8.02
2022-08-28T20:22:15.254Z,8.27
2022-08-28T20:24:42.327Z,7.07
2022-08-28T20:27:09.084Z,7.28
2022-08-28T20:29:36.037Z,11.48
2022-08-28T20:32:03.671Z,6.30
2022-08-28T20:34:30.387Z,8.80
2022-08-28T20:36:57.067Z,7.75
2022-08-28T20:39:23.810Z,7.95
2022-08-28T20:41:50.943Z,12.00
2022-08-28T20:44:19.929Z,10.93
2022-08-28T20:46:51.192Z,8.23
2022-08-28T20:49:21.942Z,9.48
2022-08-28T20:52:00.837Z,7.68
2022-08-28T20:54:31.511Z,8.23
2022-08-28T20:57:01.897Z,9.63
2022-08-28T20:59:35.421Z,9.57
2022-08-28T21:02:06.853Z,7.80
2022-08-28T21:04:38.802Z,9.70
2022-08-28T21:07:06.053Z,9.90
2022-08-28T21:09:39.525Z,8.73
2022-08-28T21:12:19.851Z,10.77
2022-08-28T21:14:51.487Z,9.10
2022-08-28T21:17:28.975Z,10.75
2022-08-28T21:20:04.413Z,9.57
2022-08-28T21:22:31.877Z,9.63
2022-08-28T21:24:59.894Z,10.93
2022-08-28T21:27:26.985Z,11.15
2022-08-28T21:29:58.753Z,10.27
2022-08-28T21:32:26.592Z,9.23
2022-08-28T21:34:54.463Z,10.65
2022-08-28T21:37:21.700Z,9.48
2022-08-28T21:39:48.435Z,9.57
2022-08-28T21:42:15.366Z,8.65
2022-08-28T21:44:48.318Z,9.13
2022-08-28T21:47:19.883Z,9.63
2022-08-28T21:49:50.087Z,8.88
2022-08-28T21:52:18.431Z,9.32
2022-08-28T21:54:45.200Z,11.77
2022-08-28T21:57:12.058Z,10.65
2022-08-28T21:59:39.130Z,10.50
2022-08-28T22:02:06.200Z,10.32
2022-08-28T22:04:34.723Z,8.95
2022-08-28T22:07:01.628Z,11.77
2022-08-28T22:09:29.016Z,8.80
2022-08-28T22:11:55.725Z,9.45
2022-08-28T22:14:25.254Z,8.80
2022-08-28T22:16:52.095Z,11.10
2022-08-28T22:19:18.939Z,10.25
2022-08-28T22:22:04.409Z,10.43
2022-08-28T22:24:31.201Z,10.73
2022-08-28T22:26:57.944Z,9.73
2022-08-28T22:29:25.222Z,13.13
2022-08-28T22:31:52.708Z,9.48
2022-08-28T22:34:19.835Z,9.23
2022-08-28T22:36:47.003Z,10.52
2022-08-28T22:39:13.963Z,9.55
2022-08-28T22:41:41.629Z,10.73
2022-08-28T22:44:08.335Z,10.27
2022-08-28T22:46:35.894Z,9.38
2022-08-28T22:49:03.085Z,10.85
2022-08-28T22:51:30.012Z,10.88
2022-08-28T22:53:56.838Z,10.40
2022-08-28T22:56:23.888Z,13.18
2022-08-28T22:58:51.010Z,12.27
2022-08-28T23:01:20.956Z,8.70
2022-08-28T23:03:48.497Z,10.10
2022-08-28T23:06:15.473Z,8.45
2022-08-28T23:08:42.694Z,9.85
2022-08-28T23:11:10.596Z,12.73
2022-08-28T23:13:38.154Z,13.82
2022-08-28T23:16:06.120Z,11.27
2022-08-28T23:18:46.279Z,10.85
2022-08-28T23:21:22.126Z,12.40
2022-08-28T23:23:50.619Z,11.10
2022-08-28T23:26:18.154Z,12.05
2022-08-28T23:28:45.276Z,9.35
2022-08-28T23:31:12.204Z,12.98
2022-08-28T23:33:38.955Z,11.30
2022-08-28T23:36:06.241Z,10.73
2022-08-28T23:38:42.834Z,11.68
2022-08-28T23:41:10.805Z,11.73
2022-08-28T23:43:38.082Z,10.40
2022-08-28T23:46:05.182Z,9.73
2022-08-28T23:48:32.914Z,12.90
2022-08-28T23:50:59.852Z,9.70
2022-08-28T23:53:26.784Z,10.07
2022-08-28T23:55:54.172Z,10.20
2022-08-28T23:58:22.404Z,11.68
